sensor_id;sensor_type;location;lat;lon;timestamp;temperature;humidity
18268;DHT22;9260;49.998;19.880;2022-10-31T00:01:40;6.20;99.90
18268;DHT22;9260;49.998;19.880;2022-10-31T00:11:45;5.90;99.90
18268;DHT22;9260;49.998;19.880;2022-10-31T00:21:50;5.70;99.90
18268;DHT22;9260;49.998;19.880;2022-10-31T00:31:55;5.50;99.90
18268;DHT22;9260;49.998;19.880;2022-10-31T00:41:58;5.20;99.90
18268;DHT22;9260;49.998;19.880;2022-10-31T00:52:03;5.20;99.90
18268;DHT22;9260;49.998;19.880;2022-10-31T01:02:07;4.90;99.90
18268;DHT22;9260;49.998;19.880;2022-10-31T01:12:13;4.90;99.90
18268;DHT22;9260;49.998;19.880;2022-10-31T01:22:16;4.80;99.90
18268;DHT22;9260;49.998;19.880;2022-10-31T01:32:21;4.60;99.90
18268;DHT22;9260;49.998;19.880;2022-10-31T01:42:25;4.50;99.90
18268;DHT22;9260;49.998;19.880;2022-10-31T01:52:32;4.80;99.90
18268;DHT22;9260;49.998;19.880;2022-10-31T02:02:39;4.20;99.90
18268;DHT22;9260;49.998;19.880;2022-10-31T02:12:45;4.10;99.90
18268;DHT22;9260;49.998;19.880;2022-10-31T02:33:27;4.30;99.90
18268;DHT22;9260;49.998;19.880;2022-10-31T02:43:37;4.40;99.90
18268;DHT22;9260;49.998;19.880;2022-10-31T02:53:45;4.90;99.90
18268;DHT22;9260;49.998;19.880;2022-10-31T03:04:05;4.70;99.90
18268;DHT22;9260;49.998;19.880;2022-10-31T03:14:22;4.80;99.90
18268;DHT22;9260;49.998;19.880;2022-10-31T03:24:37;5.20;99.90
18268;DHT22;9260;49.998;19.880;2022-10-31T03:34:44;5.80;1.00
18268;DHT22;9260;49.998;19.880;2022-10-31T03:44:55;6.00;99.90
18268;DHT22;9260;49.998;19.880;2022-10-31T03:55:07;6.20;99.90
18268;DHT22;9260;49.998;19.880;2022-10-31T04:05:13;6.00;1.00
18268;DHT22;9260;49.998;19.880;2022-10-31T04:15:20;5.80;99.90
18268;DHT22;9260;49.998;19.880;2022-10-31T04:35:30;5.40;99.90
18268;DHT22;9260;49.998;19.880;2022-10-31T04:45:34;5.00;1.00
18268;DHT22;9260;49.998;19.880;2022-10-31T04:55:39;5.00;1.00
18268;DHT22;9260;49.998;19.880;2022-10-31T05:05:42;4.90;99.90
18268;DHT22;9260;49.998;19.880;2022-10-31T05:15:49;4.80;99.90
18268;DHT22;9260;49.998;19.880;2022-10-31T05:25:55;4.90;99.90
18268;DHT22;9260;49.998;19.880;2022-10-31T05:36:00;3.60;1.00
18268;DHT22;9260;49.998;19.880;2022-10-31T05:46:26;4.40;99.90
18268;DHT22;9260;49.998;19.880;2022-10-31T05:56:57;4.80;1.00
18268;DHT22;9260;49.998;19.880;2022-10-31T06:07:01;5.10;99.90
18268;DHT22;9260;49.998;19.880;2022-10-31T06:17:06;6.10;99.90
18268;DHT22;9260;49.998;19.880;2022-10-31T06:27:21;6.70;99.90
18268;DHT22;9260;49.998;19.880;2022-10-31T06:37:26;7.30;99.90
18268;DHT22;9260;49.998;19.880;2022-10-31T06:47:37;8.70;99.90
18268;DHT22;9260;49.998;19.880;2022-10-31T06:58:03;10.00;99.90
18268;DHT22;9260;49.998;19.880;2022-10-31T07:08:09;13.00;1.00
18268;DHT22;9260;49.998;19.880;2022-10-31T07:18:15;17.20;99.90
18268;DHT22;9260;49.998;19.880;2022-10-31T07:38:27;21.80;1.00
18268;DHT22;9260;49.998;19.880;2022-10-31T07:48:36;24.00;3.00
18268;DHT22;9260;49.998;19.880;2022-10-31T07:58:59;25.90;1.00
18268;DHT22;9260;49.998;19.880;2022-10-31T08:09:03;27.90;1.00
18268;DHT22;9260;49.998;19.880;2022-10-31T08:19:10;29.90;1.00
18268;DHT22;9260;49.998;19.880;2022-10-31T08:29:14;31.40;1.00
18268;DHT22;9260;49.998;19.880;2022-10-31T08:39:20;33.30;1.00
18268;DHT22;9260;49.998;19.880;2022-10-31T08:49:24;34.60;1.00
18268;DHT22;9260;49.998;19.880;2022-10-31T08:59:29;36.30;1.00
18268;DHT22;9260;49.998;19.880;2022-10-31T09:10:05;37.40;99.90
18268;DHT22;9260;49.998;19.880;2022-10-31T09:20:13;38.30;99.90
18268;DHT22;9260;49.998;19.880;2022-10-31T09:30:16;39.40;1.00
18268;DHT22;9260;49.998;19.880;2022-10-31T09:40:21;40.80;1.00
18268;DHT22;9260;49.998;19.880;2022-10-31T09:50:33;42.10;1.00
18268;DHT22;9260;49.998;19.880;2022-10-31T10:01:01;43.10;1.00
18268;DHT22;9260;49.998;19.880;2022-10-31T10:11:19;43.00;1.00
18268;DHT22;9260;49.998;19.880;2022-10-31T10:21:47;44.00;1.00
18268;DHT22;9260;49.998;19.880;2022-10-31T10:31:57;43.90;99.90
18268;DHT22;9260;49.998;19.880;2022-10-31T10:42:09;44.70;99.90
18268;DHT22;9260;49.998;19.880;2022-10-31T10:52:48;44.90;99.90
18268;DHT22;9260;49.998;19.880;2022-10-31T11:02:56;45.80;99.90
18268;DHT22;9260;49.998;19.880;2022-10-31T11:13:20;45.90;99.90
18268;DHT22;9260;49.998;19.880;2022-10-31T11:23:28;46.30;99.90
18268;DHT22;9260;49.998;19.880;2022-10-31T11:33:33;47.20;99.90
18268;DHT22;9260;49.998;19.880;2022-10-31T11:43:46;46.90;99.90
18268;DHT22;9260;49.998;19.880;2022-10-31T11:53:53;47.50;99.90
18268;DHT22;9260;49.998;19.880;2022-10-31T12:04:07;48.20;99.90
18268;DHT22;9260;49.998;19.880;2022-10-31T12:14:21;47.90;99.90
18268;DHT22;9260;49.998;19.880;2022-10-31T12:24:43;47.90;99.90
18268;DHT22;9260;49.998;19.880;2022-10-31T12:35:21;47.20;99.90
18268;DHT22;9260;49.998;19.880;2022-10-31T12:45:39;46.80;99.90
18268;DHT22;9260;49.998;19.880;2022-10-31T12:56:02;45.50;99.90
18268;DHT22;9260;49.998;19.880;2022-10-31T13:06:18;44.90;99.90
18268;DHT22;9260;49.998;19.880;2022-10-31T13:16:26;44.70;99.90
18268;DHT22;9260;49.998;19.880;2022-10-31T13:26:37;43.60;99.90
18268;DHT22;9260;49.998;19.880;2022-10-31T13:36:48;42.40;99.90
18268;DHT22;9260;49.998;19.880;2022-10-31T13:46:58;40.90;99.90
18268;DHT22;9260;49.998;19.880;2022-10-31T13:57:01;39.40;99.90
18268;DHT22;9260;49.998;19.880;2022-10-31T14:07:08;37.30;99.90
18268;DHT22;9260;49.998;19.880;2022-10-31T14:17:19;28.40;1.00
18268;DHT22;9260;49.998;19.880;2022-10-31T14:27:42;24.80;1.00
18268;DHT22;9260;49.998;19.880;2022-10-31T14:38:10;22.50;1.00
18268;DHT22;9260;49.998;19.880;2022-10-31T14:48:42;20.40;1.00
18268;DHT22;9260;49.998;19.880;2022-10-31T14:58:57;19.00;99.90
18268;DHT22;9260;49.998;19.880;2022-10-31T15:09:03;17.50;1.00
18268;DHT22;9260;49.998;19.880;2022-10-31T15:19:09;16.10;16.20
18268;DHT22;9260;49.998;19.880;2022-10-31T15:29:18;15.30;1.00
18268;DHT22;9260;49.998;19.880;2022-10-31T15:39:24;14.50;1.00
18268;DHT22;9260;49.998;19.880;2022-10-31T15:49:35;13.20;1.00
18268;DHT22;9260;49.998;19.880;2022-10-31T15:59:40;12.50;61.40
18268;DHT22;9260;49.998;19.880;2022-10-31T16:09:52;12.00;77.80
18268;DHT22;9260;49.998;19.880;2022-10-31T16:20:00;11.40;90.50
18268;DHT22;9260;49.998;19.880;2022-10-31T16:30:37;11.00;50.40
18268;DHT22;9260;49.998;19.880;2022-10-31T16:40:49;10.80;90.50
18268;DHT22;9260;49.998;19.880;2022-10-31T16:50:54;10.60;99.90
18268;DHT22;9260;49.998;19.880;2022-10-31T17:00:58;10.30;1.00
18268;DHT22;9260;49.998;19.880;2022-10-31T17:11:03;10.20;1.00
18268;DHT22;9260;49.998;19.880;2022-10-31T17:21:12;9.90;49.00
18268;DHT22;9260;49.998;19.880;2022-10-31T17:31:22;9.00;13.40
18268;DHT22;9260;49.998;19.880;2022-10-31T17:41:26;8.90;1.00
18268;DHT22;9260;49.998;19.880;2022-10-31T17:51:31;8.60;1.00
18268;DHT22;9260;49.998;19.880;2022-10-31T18:01:34;8.50;1.00
18268;DHT22;9260;49.998;19.880;2022-10-31T18:11:39;8.40;1.00
18268;DHT22;9260;49.998;19.880;2022-10-31T18:21:44;8.20;1.00
18268;DHT22;9260;49.998;19.880;2022-10-31T18:31:48;8.00;1.00
18268;DHT22;9260;49.998;19.880;2022-10-31T18:41:54;7.80;1.00
18268;DHT22;9260;49.998;19.880;2022-10-31T18:51:59;7.50;1.00
18268;DHT22;9260;49.998;19.880;2022-10-31T19:02:02;7.50;1.00
18268;DHT22;9260;49.998;19.880;2022-10-31T19:12:07;7.20;1.00
18268;DHT22;9260;49.998;19.880;2022-10-31T19:22:10;7.40;1.00
18268;DHT22;9260;49.998;19.880;2022-10-31T19:32:15;7.40;1.00
18268;DHT22;9260;49.998;19.880;2022-10-31T19:42:19;7.10;1.00
18268;DHT22;9260;49.998;19.880;2022-10-31T19:52:24;7.00;1.00
18268;DHT22;9260;49.998;19.880;2022-10-31T20:02:27;6.80;8.60
18268;DHT22;9260;49.998;19.880;2022-10-31T20:12:33;6.70;1.00
18268;DHT22;9260;49.998;19.880;2022-10-31T20:22:36;6.20;22.70
18268;DHT22;9260;49.998;19.880;2022-10-31T20:32:41;6.40;1.00
18268;DHT22;9260;49.998;19.880;2022-10-31T20:42:50;6.30;19.00
18268;DHT22;9260;49.998;19.880;2022-10-31T20:52:55;6.10;1.00
18268;DHT22;9260;49.998;19.880;2022-10-31T21:13:04;5.80;58.90
18268;DHT22;9260;49.998;19.880;2022-10-31T21:33:13;5.50;99.90
18268;DHT22;9260;49.998;19.880;2022-10-31T21:43:17;5.40;81.80
18268;DHT22;9260;49.998;19.880;2022-10-31T21:53:21;5.30;1.00
18268;DHT22;9260;49.998;19.880;2022-10-31T22:03:42;5.10;99.90
18268;DHT22;9260;49.998;19.880;2022-10-31T22:13:48;5.10;99.90
18268;DHT22;9260;49.998;19.880;2022-10-31T22:23:53;4.90;99.90
18268;DHT22;9260;49.998;19.880;2022-10-31T22:34:06;4.90;99.90
18268;DHT22;9260;49.998;19.880;2022-10-31T22:44:09;4.80;99.60
18268;DHT22;9260;49.998;19.880;2022-10-31T22:54:16;4.60;99.90
18268;DHT22;9260;49.998;19.880;2022-10-31T23:04:20;4.80;98.20
18268;DHT22;9260;49.998;19.880;2022-10-31T23:14:25;4.60;99.90
18268;DHT22;9260;49.998;19.880;2022-10-31T23:24:32;4.50;99.90
18268;DHT22;9260;49.998;19.880;2022-10-31T23:34:38;4.20;1.00
18268;DHT22;9260;49.998;19.880;2022-10-31T23:44:42;4.30;99.90
18268;DHT22;9260;49.998;19.880;2022-10-31T23:54:47;4.30;99.90
